createdAt,value
2018-08-18T00:00:10.885Z,2.37
2018-08-18T00:00:23.322Z,2.37
2018-08-18T00:00:35.745Z,2.37
2018-08-18T00:00:48.164Z,2.37
2018-08-18T00:01:00.591Z,2.37
2018-08-18T00:01:13.024Z,2.37
2018-08-18T00:01:25.463Z,2.37
2018-08-18T00:01:37.874Z,2.37
2018-08-18T00:01:50.289Z,2.37
2018-08-18T00:02:02.723Z,2.2
2018-08-18T00:02:15.126Z,2.2
2018-08-18T00:02:27.557Z,2.2
2018-08-18T00:02:40.154Z,2.2
2018-08-18T00:02:52.597Z,2.2
2018-08-18T00:03:05.055Z,2.2
2018-08-18T00:03:17.472Z,2.2
2018-08-18T00:03:29.896Z,2.2
2018-08-18T00:03:42.326Z,2.2
2018-08-18T00:03:54.730Z,2.2
2018-08-18T00:04:07.141Z,2.2
2018-08-18T00:04:19.558Z,2.2
2018-08-18T00:04:32.005Z,2.2
2018-08-18T00:04:44.436Z,2.2
2018-08-18T00:04:56.858Z,2.2
2018-08-18T00:05:09.285Z,2.2
2018-08-18T00:05:21.701Z,2.2
2018-08-18T00:05:34.123Z,2.2
2018-08-18T00:05:46.540Z,2.2
2018-08-18T00:05:58.966Z,2.2
2018-08-18T00:06:11.383Z,2.2
2018-08-18T00:06:23.810Z,2.2
2018-08-18T00:06:36.236Z,2.2
2018-08-18T00:06:48.644Z,2.2
2018-08-18T00:07:01.092Z,2.2
2018-08-18T00:07:13.494Z,2.2
2018-08-18T00:07:25.914Z,2.2
2018-08-18T00:07:38.384Z,2.2
2018-08-18T00:07:50.900Z,2.2
2018-08-18T00:08:03.355Z,2.2
2018-08-18T00:08:15.781Z,2.2
2018-08-18T00:08:28.205Z,2.2
2018-08-18T00:08:40.751Z,2.2
2018-08-18T00:08:53.174Z,2.2
2018-08-18T00:09:05.598Z,2.2
2018-08-18T00:09:18.013Z,2.2
2018-08-18T00:09:30.433Z,2.2
2018-08-18T00:09:42.857Z,2.2
2018-08-18T00:09:55.275Z,2.2
2018-08-18T00:10:07.712Z,2.2
2018-08-18T00:10:20.178Z,2.2
2018-08-18T00:10:32.756Z,2.2
2018-08-18T00:10:45.175Z,2.2
2018-08-18T00:10:57.657Z,2.2
2018-08-18T00:11:10.097Z,2.2
2018-08-18T00:11:22.521Z,2.2
2018-08-18T00:11:34.953Z,2.2
2018-08-18T00:11:47.393Z,2.2
2018-08-18T00:11:59.813Z,2.42
2018-08-18T00:12:12.239Z,2.42
2018-08-18T00:12:24.666Z,2.42
2018-08-18T00:12:37.056Z,2.42
2018-08-18T00:12:49.484Z,2.42
2018-08-18T00:13:01.925Z,2.42
2018-08-18T00:13:14.356Z,2.42
2018-08-18T00:13:26.770Z,2.42
2018-08-18T00:13:39.739Z,2.42
2018-08-18T00:13:52.198Z,2.42
2018-08-18T00:14:04.615Z,2.42
2018-08-18T00:14:17.049Z,2.42
2018-08-18T00:14:29.480Z,2.42
2018-08-18T00:14:41.917Z,2.42
2018-08-18T00:14:54.340Z,2.42
2018-08-18T00:15:06.769Z,2.42
2018-08-18T00:15:19.203Z,2.42
2018-08-18T00:15:31.640Z,2.42
2018-08-18T00:15:44.055Z,2.42
2018-08-18T00:15:56.476Z,2.42
2018-08-18T00:16:08.901Z,2.42
2018-08-18T00:16:21.314Z,2.42
2018-08-18T00:16:33.733Z,2.42
2018-08-18T00:16:46.325Z,2.42
2018-08-18T00:16:58.747Z,2.42
2018-08-18T00:17:11.193Z,2.42
2018-08-18T00:17:23.655Z,2.42
2018-08-18T00:17:36.069Z,2.42
2018-08-18T00:17:48.773Z,2.42
2018-08-18T00:18:01.188Z,2.42
2018-08-18T00:18:13.608Z,2.42
2018-08-18T00:18:26.032Z,2.42
2018-08-18T00:18:38.503Z,2.42
2018-08-18T00:18:50.938Z,2.42
2018-08-18T00:19:03.380Z,2.42
2018-08-18T00:19:15.798Z,2.42
2018-08-18T00:19:28.215Z,2.42
2018-08-18T00:19:40.635Z,2.42
2018-08-18T00:19:53.038Z,2.42
2018-08-18T00:20:05.457Z,2.42
2018-08-18T00:20:17.943Z,2.42
2018-08-18T00:20:30.368Z,2.42
2018-08-18T00:20:42.875Z,2.42
2018-08-18T00:20:55.308Z,2.42
2018-08-18T00:21:07.723Z,2.42
2018-08-18T00:21:20.154Z,2.42
2018-08-18T00:21:32.619Z,2.42
2018-08-18T00:21:45.031Z,2.42
2018-08-18T00:21:57.460Z,2.42
2018-08-18T00:22:09.927Z,2.2
2018-08-18T00:22:22.514Z,2.2
2018-08-18T00:22:34.928Z,2.2
2018-08-18T00:22:47.336Z,2.2
2018-08-18T00:22:59.754Z,2.2
2018-08-18T00:23:12.158Z,2.2
2018-08-18T00:23:24.579Z,2.2
2018-08-18T00:23:37.013Z,2.2
2018-08-18T00:23:49.449Z,2.2
2018-08-18T00:24:01.861Z,2.2
2018-08-18T00:24:14.265Z,2.2
2018-08-18T00:24:26.673Z,2.2
2018-08-18T00:24:39.080Z,2.2
2018-08-18T00:24:51.557Z,2.2
2018-08-18T00:25:04.152Z,2.2
2018-08-18T00:25:16.607Z,2.2
2018-08-18T00:25:29.045Z,2.2
2018-08-18T00:25:41.473Z,2.2
2018-08-18T00:25:53.870Z,2.2
2018-08-18T00:26:06.264Z,2.2
2018-08-18T00:26:18.674Z,2.2
2018-08-18T00:26:31.090Z,2.2
2018-08-18T00:26:43.652Z,2.2
2018-08-18T00:26:56.072Z,2.2
2018-08-18T00:27:08.502Z,2.2
2018-08-18T00:27:21.100Z,2.2
2018-08-18T00:27:33.514Z,2.2
2018-08-18T00:27:45.930Z,2.2
2018-08-18T00:27:58.351Z,2.2
2018-08-18T00:28:10.762Z,2.2
2018-08-18T00:28:23.168Z,2.2
2018-08-18T00:28:35.562Z,2.2
2018-08-18T00:28:47.968Z,2.2
2018-08-18T00:29:00.377Z,2.2
2018-08-18T00:29:12.796Z,2.2
2018-08-18T00:29:25.501Z,2.2
2018-08-18T00:29:37.937Z,2.2
2018-08-18T00:29:50.365Z,2.2
2018-08-18T00:30:02.771Z,2.2
2018-08-18T00:30:15.200Z,2.2
2018-08-18T00:30:27.645Z,2.2
2018-08-18T00:30:40.077Z,2.2
2018-08-18T00:30:52.494Z,2.2
2018-08-18T00:31:04.902Z,2.2
2018-08-18T00:31:17.300Z,2.2
2018-08-18T00:31:29.700Z,2.2
2018-08-18T00:31:42.117Z,2.2
2018-08-18T00:31:54.561Z,2.2
2018-08-18T00:32:06.981Z,2.35
2018-08-18T00:32:19.393Z,2.35
2018-08-18T00:32:31.805Z,2.35
2018-08-18T00:32:44.328Z,2.35
2018-08-18T00:32:56.756Z,2.35
2018-08-18T00:33:09.180Z,2.35
2018-08-18T00:33:21.621Z,2.35
2018-08-18T00:33:34.041Z,2.35
2018-08-18T00:33:46.457Z,2.35
2018-08-18T00:33:58.845Z,2.35
2018-08-18T00:34:11.499Z,2.35
2018-08-18T00:34:24.929Z,2.35
2018-08-18T00:34:37.577Z,2.35
2018-08-18T00:34:50.016Z,2.35
2018-08-18T00:35:02.445Z,2.35
2018-08-18T00:35:14.865Z,2.35
2018-08-18T00:35:27.495Z,2.35
2018-08-18T00:35:39.921Z,2.35
2018-08-18T00:35:52.354Z,2.35
2018-08-18T00:36:04.833Z,2.35
2018-08-18T00:36:17.298Z,2.35
2018-08-18T00:36:29.715Z,2.35
2018-08-18T00:36:42.170Z,2.35
2018-08-18T00:36:54.739Z,2.35
2018-08-18T00:37:07.157Z,2.35
2018-08-18T00:37:19.576Z,2.35
2018-08-18T00:37:32.005Z,2.35
2018-08-18T00:37:44.491Z,2.35
2018-08-18T00:37:56.959Z,2.35
2018-08-18T00:38:09.365Z,2.35
2018-08-18T00:38:21.770Z,2.35
2018-08-18T00:38:34.174Z,2.35
2018-08-18T00:38:46.729Z,2.35
2018-08-18T00:38:59.136Z,2.35
2018-08-18T00:39:11.561Z,2.35
2018-08-18T00:39:23.984Z,2.35
2018-08-18T00:39:36.405Z,2.35
2018-08-18T00:39:48.884Z,2.35
2018-08-18T00:40:01.375Z,2.35
2018-08-18T00:40:13.932Z,2.35
2018-08-18T00:40:26.436Z,2.35
2018-08-18T00:40:38.855Z,2.35
2018-08-18T00:40:51.298Z,2.35
2018-08-18T00:41:03.710Z,2.35
2018-08-18T00:41:16.188Z,2.35
2018-08-18T00:41:28.596Z,2.35
2018-08-18T00:41:41.007Z,2.35
2018-08-18T00:41:53.440Z,2.35
2018-08-18T00:42:05.866Z,2.21
2018-08-18T00:42:18.294Z,2.21
2018-08-18T00:42:30.727Z,2.21
2018-08-18T00:42:43.185Z,2.21
2018-08-18T00:42:55.636Z,2.21
2018-08-18T00:43:08.099Z,2.21
2018-08-18T00:43:20.576Z,2.21
2018-08-18T00:43:33.008Z,2.21
2018-08-18T00:43:45.410Z,2.21
2018-08-18T00:43:57.823Z,2.21
2018-08-18T00:44:10.239Z,2.21
2018-08-18T00:44:22.677Z,2.21
2018-08-18T00:44:35.147Z,2.21
2018-08-18T00:44:47.603Z,2.21
2018-08-18T00:45:00.017Z,2.21
2018-08-18T00:45:12.461Z,2.21
2018-08-18T00:45:24.915Z,2.21
2018-08-18T00:45:37.355Z,2.21
2018-08-18T00:45:49.786Z,2.21
2018-08-18T00:46:02.198Z,2.21
2018-08-18T00:46:14.628Z,2.21
2018-08-18T00:46:27.051Z,2.21
2018-08-18T00:46:39.458Z,2.21
2018-08-18T00:46:51.880Z,2.21
2018-08-18T00:47:04.331Z,2.21
2018-08-18T00:47:16.755Z,2.21
2018-08-18T00:47:29.178Z,2.21
2018-08-18T00:47:41.660Z,2.21
2018-08-18T00:47:54.077Z,2.21
2018-08-18T00:48:06.500Z,2.21
2018-08-18T00:48:18.922Z,2.21
2018-08-18T00:48:31.330Z,2.21
2018-08-18T00:48:43.735Z,2.21
2018-08-18T00:48:56.154Z,2.21
2018-08-18T00:49:08.659Z,2.21
2018-08-18T00:49:21.091Z,2.21
2018-08-18T00:49:33.523Z,2.21
2018-08-18T00:49:45.939Z,2.21
2018-08-18T00:49:58.361Z,2.21
2018-08-18T00:50:10.777Z,2.21
2018-08-18T00:50:23.206Z,2.21
2018-08-18T00:50:35.628Z,2.21
2018-08-18T00:50:48.051Z,2.21
2018-08-18T00:51:00.470Z,2.21
2018-08-18T00:51:12.957Z,2.21
2018-08-18T00:51:25.371Z,2.21
2018-08-18T00:51:37.791Z,2.21
2018-08-18T00:51:50.219Z,2.21
2018-08-18T00:52:02.792Z,2.3
2018-08-18T00:52:15.211Z,2.3
2018-08-18T00:52:27.629Z,2.3
2018-08-18T00:52:40.089Z,2.3
2018-08-18T00:52:52.519Z,2.3
2018-08-18T00:53:04.937Z,2.3
2018-08-18T00:53:17.383Z,2.3
2018-08-18T00:53:29.805Z,2.3
2018-08-18T00:53:42.239Z,2.3
2018-08-18T00:53:54.651Z,2.3
2018-08-18T00:54:07.150Z,2.3
2018-08-18T00:54:19.557Z,2.3
2018-08-18T00:54:31.964Z,2.3
2018-08-18T00:54:44.376Z,2.3
2018-08-18T00:54:56.789Z,2.3
2018-08-18T00:55:09.203Z,2.3
2018-08-18T00:55:21.628Z,2.3
2018-08-18T00:55:34.065Z,2.3
2018-08-18T00:55:46.487Z,2.3
2018-08-18T00:55:58.912Z,2.3
2018-08-18T00:56:11.421Z,2.3
2018-08-18T00:56:23.865Z,2.3
2018-08-18T00:56:36.283Z,2.3
2018-08-18T00:56:48.715Z,2.3
2018-08-18T00:57:01.116Z,2.3
2018-08-18T00:57:13.536Z,2.3
2018-08-18T00:57:25.938Z,2.3
2018-08-18T00:57:38.402Z,2.3
2018-08-18T00:57:50.822Z,2.3
2018-08-18T00:58:03.253Z,2.3
2018-08-18T00:58:15.674Z,2.3
2018-08-18T00:58:28.089Z,2.3
2018-08-18T00:58:40.508Z,2.3
2018-08-18T00:58:52.928Z,2.3
2018-08-18T00:59:05.640Z,2.3
2018-08-18T00:59:18.051Z,2.3
2018-08-18T00:59:30.472Z,2.3
2018-08-18T00:59:42.865Z,2.3
2018-08-18T00:59:55.288Z,2.3
2018-08-18T01:00:07.725Z,2.3
2018-08-18T01:00:20.198Z,2.3
2018-08-18T01:00:32.644Z,2.3
2018-08-18T01:00:45.093Z,2.3
2018-08-18T01:00:57.527Z,2.3
2018-08-18T01:01:09.962Z,2.3
2018-08-18T01:01:22.390Z,2.3
2018-08-18T01:01:34.810Z,2.3
2018-08-18T01:01:47.240Z,2.3
2018-08-18T01:01:59.671Z,2.3
2018-08-18T01:02:12.112Z,2.04
2018-08-18T01:02:24.562Z,2.04
2018-08-18T01:02:37.172Z,2.04
2018-08-18T01:02:49.652Z,2.04
2018-08-18T01:03:02.083Z,2.04
2018-08-18T01:03:14.507Z,2.04
2018-08-18T01:03:27.007Z,2.04
2018-08-18T01:03:39.461Z,2.04
2018-08-18T01:03:51.911Z,2.04
2018-08-18T01:04:04.345Z,2.04
2018-08-18T01:04:16.764Z,2.04
2018-08-18T01:04:29.176Z,2.04
2018-08-18T01:04:41.577Z,2.04
2018-08-18T01:04:53.987Z,2.04
2018-08-18T01:05:06.438Z,2.04
2018-08-18T01:05:18.859Z,2.04
2018-08-18T01:05:31.277Z,2.04
2018-08-18T01:05:43.694Z,2.04
2018-08-18T01:05:56.097Z,2.04
2018-08-18T01:06:08.512Z,2.04
2018-08-18T01:06:20.947Z,2.04
2018-08-18T01:06:33.373Z,2.04
2018-08-18T01:06:45.799Z,2.04
2018-08-18T01:06:58.234Z,2.04
2018-08-18T01:07:10.645Z,2.04
2018-08-18T01:07:23.057Z,2.04
2018-08-18T01:07:35.496Z,2.04
2018-08-18T01:07:47.914Z,2.04
2018-08-18T01:08:00.326Z,2.04
2018-08-18T01:08:12.749Z,2.04
2018-08-18T01:08:25.168Z,2.04
2018-08-18T01:08:37.707Z,2.04
2018-08-18T01:08:50.116Z,2.04
2018-08-18T01:09:02.540Z,2.04
2018-08-18T01:09:14.956Z,2.04
2018-08-18T01:09:27.383Z,2.04
2018-08-18T01:09:39.787Z,2.04
2018-08-18T01:09:52.260Z,2.04
2018-08-18T01:10:04.753Z,2.04
2018-08-18T01:10:17.172Z,2.04
2018-08-18T01:10:29.598Z,2.04
2018-08-18T01:10:42.035Z,2.04
2018-08-18T01:10:55.109Z,2.04
2018-08-18T01:11:09.334Z,2.04
2018-08-18T01:11:23.048Z,2.04
2018-08-18T01:11:37.755Z,2.04
2018-08-18T01:11:52.388Z,2.04
2018-08-18T01:12:07.097Z,2.04
2018-08-18T01:12:21.244Z,2.33
2018-08-18T01:12:35.948Z,2.33
2018-08-18T01:12:50.526Z,2.33
2018-08-18T01:13:04.051Z,2.33
2018-08-18T01:13:17.320Z,2.33
2018-08-18T01:13:30.277Z,2.33
2018-08-18T01:13:43.546Z,2.33
2018-08-18T01:13:57.865Z,2.33
2018-08-18T01:14:12.012Z,2.33
2018-08-18T01:14:26.549Z,2.33
2018-08-18T01:14:40.320Z,2.33
2018-08-18T01:14:54.065Z,2.33
2018-08-18T01:15:07.686Z,2.33
2018-08-18T01:15:20.123Z,2.33
2018-08-18T01:15:32.736Z,2.33
2018-08-18T01:15:46.452Z,2.33
2018-08-18T01:15:59.153Z,2.33
2018-08-18T01:16:11.591Z,2.33
2018-08-18T01:16:24.047Z,2.33
2018-08-18T01:16:36.477Z,2.33
2018-08-18T01:16:49.798Z,2.33
2018-08-18T01:17:02.210Z,2.33
2018-08-18T01:17:14.636Z,2.33
2018-08-18T01:17:27.056Z,2.33
2018-08-18T01:17:39.600Z,2.33
2018-08-18T01:17:52.188Z,2.33
2018-08-18T01:18:04.629Z,2.33
2018-08-18T01:18:17.116Z,2.33
2018-08-18T01:18:29.539Z,2.33
2018-08-18T01:18:42.000Z,2.33
2018-08-18T01:18:54.460Z,2.33
2018-08-18T01:19:06.872Z,2.33
2018-08-18T01:19:19.316Z,2.33
2018-08-18T01:19:31.720Z,2.33
2018-08-18T01:19:44.120Z,2.33
2018-08-18T01:19:56.519Z,2.33
2018-08-18T01:20:08.968Z,2.33
2018-08-18T01:20:21.372Z,2.33
2018-08-18T01:20:33.777Z,2.33
2018-08-18T01:20:46.437Z,2.33
2018-08-18T01:20:58.860Z,2.33
2018-08-18T01:21:11.293Z,2.33
2018-08-18T01:21:23.974Z,2.33
2018-08-18T01:21:37.426Z,2.33
2018-08-18T01:21:49.967Z,2.33
2018-08-18T01:22:02.387Z,2.33
2018-08-18T01:22:14.789Z,2.45
2018-08-18T01:22:27.276Z,2.45
2018-08-18T01:22:39.710Z,2.45
2018-08-18T01:22:52.143Z,2.45
2018-08-18T01:23:04.597Z,2.45
2018-08-18T01:23:17.041Z,2.45
2018-08-18T01:23:29.493Z,2.45
2018-08-18T01:23:41.935Z,2.45
2018-08-18T01:23:54.355Z,2.45
2018-08-18T01:24:06.788Z,2.45
2018-08-18T01:24:19.257Z,2.45
2018-08-18T01:24:31.683Z,2.45
2018-08-18T01:24:44.125Z,2.45
2018-08-18T01:24:56.586Z,2.45
2018-08-18T01:25:09.015Z,2.45
2018-08-18T01:25:21.415Z,2.45
2018-08-18T01:25:33.824Z,2.45
2018-08-18T01:25:46.310Z,2.45
2018-08-18T01:25:58.759Z,2.45
2018-08-18T01:26:11.233Z,2.45
2018-08-18T01:26:23.658Z,2.45
2018-08-18T01:26:36.073Z,2.45
2018-08-18T01:26:48.571Z,2.45
2018-08-18T01:27:01.246Z,2.45
2018-08-18T01:27:14.838Z,2.45
2018-08-18T01:27:27.428Z,2.45
2018-08-18T01:27:39.855Z,2.45
2018-08-18T01:27:52.307Z,2.45
2018-08-18T01:28:04.731Z,2.45
2018-08-18T01:28:17.148Z,2.45
2018-08-18T01:28:29.577Z,2.45
2018-08-18T01:28:42.024Z,2.45
2018-08-18T01:28:54.428Z,2.45
2018-08-18T01:29:06.838Z,2.45
2018-08-18T01:29:19.260Z,2.45
2018-08-18T01:29:31.685Z,2.45
2018-08-18T01:29:44.129Z,2.45
2018-08-18T01:29:56.553Z,2.45
2018-08-18T01:30:08.979Z,2.45
2018-08-18T01:30:21.398Z,2.45
2018-08-18T01:30:33.859Z,2.45
2018-08-18T01:30:46.293Z,2.45
2018-08-18T01:30:58.724Z,2.45
2018-08-18T01:31:11.196Z,2.45
2018-08-18T01:31:23.665Z,2.45
2018-08-18T01:31:36.075Z,2.45
2018-08-18T01:31:48.536Z,2.45
2018-08-18T01:32:00.953Z,2.45
2018-08-18T01:32:13.349Z,2.15
2018-08-18T01:32:25.928Z,2.15
2018-08-18T01:32:38.353Z,2.15
2018-08-18T01:32:50.864Z,2.15
2018-08-18T01:33:03.274Z,2.15
2018-08-18T01:33:15.709Z,2.15
2018-08-18T01:33:28.118Z,2.15
2018-08-18T01:33:40.553Z,2.15
2018-08-18T01:33:52.973Z,2.15
2018-08-18T01:34:05.392Z,2.15
2018-08-18T01:34:17.793Z,2.15
2018-08-18T01:34:30.211Z,2.15
2018-08-18T01:34:42.628Z,2.15
2018-08-18T01:34:55.083Z,2.15
2018-08-18T01:35:07.491Z,2.15
2018-08-18T01:35:19.899Z,2.15
2018-08-18T01:35:32.322Z,2.15
2018-08-18T01:35:44.729Z,2.15
2018-08-18T01:35:57.136Z,2.15
2018-08-18T01:36:09.549Z,2.15
2018-08-18T01:36:21.979Z,2.15
2018-08-18T01:36:34.414Z,2.15
2018-08-18T01:36:46.843Z,2.15
2018-08-18T01:36:59.244Z,2.15
2018-08-18T01:37:11.653Z,2.15
2018-08-18T01:37:24.206Z,2.15
2018-08-18T01:37:36.627Z,2.15
2018-08-18T01:37:49.027Z,2.15
2018-08-18T01:38:01.463Z,2.15
2018-08-18T01:38:13.891Z,2.15
2018-08-18T01:38:26.332Z,2.15
2018-08-18T01:38:38.799Z,2.15
2018-08-18T01:38:51.230Z,2.15
2018-08-18T01:39:03.724Z,2.15
2018-08-18T01:39:16.322Z,2.15
2018-08-18T01:39:28.735Z,2.15
2018-08-18T01:39:41.194Z,2.15
2018-08-18T01:39:53.623Z,2.15
2018-08-18T01:40:06.048Z,2.15
2018-08-18T01:40:18.577Z,2.15
2018-08-18T01:40:31.012Z,2.15
2018-08-18T01:40:43.433Z,2.15
2018-08-18T01:40:55.839Z,2.15
2018-08-18T01:41:08.273Z,2.15
2018-08-18T01:41:20.716Z,2.15
2018-08-18T01:41:33.178Z,2.15
2018-08-18T01:41:45.591Z,2.15
2018-08-18T01:41:58.045Z,2.15
2018-08-18T01:42:10.451Z,2.15
2018-08-18T01:42:22.862Z,2.44
2018-08-18T01:42:35.281Z,2.44
2018-08-18T01:42:47.714Z,2.44
2018-08-18T01:43:00.139Z,2.44
2018-08-18T01:43:12.553Z,2.44
2018-08-18T01:43:24.974Z,2.44
2018-08-18T01:43:37.381Z,2.44
2018-08-18T01:43:50.463Z,2.44
2018-08-18T01:44:03.686Z,2.44
2018-08-18T01:44:16.177Z,2.44
2018-08-18T01:44:28.613Z,2.44
2018-08-18T01:44:41.016Z,2.44
2018-08-18T01:44:53.466Z,2.44
2018-08-18T01:45:05.912Z,2.44
2018-08-18T01:45:18.373Z,2.44
2018-08-18T01:45:30.797Z,2.44
2018-08-18T01:45:43.230Z,2.44
2018-08-18T01:45:55.822Z,2.44
2018-08-18T01:46:08.236Z,2.44
2018-08-18T01:46:20.651Z,2.44
2018-08-18T01:46:33.072Z,2.44
2018-08-18T01:46:45.469Z,2.44
2018-08-18T01:46:57.896Z,2.44
2018-08-18T01:47:10.320Z,2.44
2018-08-18T01:47:22.727Z,2.44
2018-08-18T01:47:35.141Z,2.44
2018-08-18T01:47:47.546Z,2.44
2018-08-18T01:47:59.946Z,2.44
2018-08-18T01:48:12.372Z,2.44
2018-08-18T01:48:24.790Z,2.44
2018-08-18T01:48:37.193Z,2.44
2018-08-18T01:48:49.609Z,2.44
2018-08-18T01:49:02.178Z,2.44
2018-08-18T01:49:14.591Z,2.44
2018-08-18T01:49:27.005Z,2.44
2018-08-18T01:49:39.427Z,2.44
2018-08-18T01:49:51.858Z,2.44
2018-08-18T01:50:04.342Z,2.44
2018-08-18T01:50:16.758Z,2.44
2018-08-18T01:50:29.170Z,2.44
2018-08-18T01:50:41.649Z,2.44
2018-08-18T01:50:54.061Z,2.44
2018-08-18T01:51:06.486Z,2.44
2018-08-18T01:51:18.906Z,2.44
2018-08-18T01:51:31.309Z,2.44
2018-08-18T01:51:43.790Z,2.44
2018-08-18T01:51:56.410Z,2.44
2018-08-18T01:52:08.826Z,2.44
2018-08-18T01:52:21.241Z,2.35
2018-08-18T01:52:33.643Z,2.35
2018-08-18T01:52:46.051Z,2.35
2018-08-18T01:52:58.463Z,2.35
2018-08-18T01:53:10.858Z,2.35
2018-08-18T01:53:23.261Z,2.35
2018-08-18T01:53:35.688Z,2.35
2018-08-18T01:53:48.109Z,2.35
2018-08-18T01:54:00.659Z,2.35
2018-08-18T01:54:13.083Z,2.35
2018-08-18T01:54:25.482Z,2.35
2018-08-18T01:54:37.884Z,2.35
2018-08-18T01:54:50.315Z,2.35
2018-08-18T01:55:02.749Z,2.35
2018-08-18T01:55:15.186Z,2.35
2018-08-18T01:55:27.610Z,2.35
2018-08-18T01:55:40.012Z,2.35
2018-08-18T01:55:52.421Z,2.35
2018-08-18T01:56:04.854Z,2.35
2018-08-18T01:56:17.264Z,2.35
2018-08-18T01:56:29.713Z,2.35
2018-08-18T01:56:42.118Z,2.35
2018-08-18T01:56:54.520Z,2.35
2018-08-18T01:57:06.972Z,2.35
2018-08-18T01:57:19.399Z,2.35
2018-08-18T01:57:31.826Z,2.35
2018-08-18T01:57:44.249Z,2.35
2018-08-18T01:57:56.680Z,2.35
2018-08-18T01:58:09.166Z,2.35
2018-08-18T01:58:21.585Z,2.35
2018-08-18T01:58:34.005Z,2.35
2018-08-18T01:58:46.430Z,2.35
2018-08-18T01:58:58.846Z,2.35
2018-08-18T01:59:11.263Z,2.35
2018-08-18T01:59:23.657Z,2.35
2018-08-18T01:59:36.080Z,2.35
2018-08-18T01:59:48.529Z,2.35
2018-08-18T02:00:00.962Z,2.35
2018-08-18T02:00:13.406Z,2.35
2018-08-18T02:00:25.935Z,2.35
2018-08-18T02:00:38.410Z,2.35
2018-08-18T02:00:50.851Z,2.35
2018-08-18T02:01:03.273Z,2.35
2018-08-18T02:01:15.713Z,2.35
2018-08-18T02:01:28.138Z,2.35
2018-08-18T02:01:40.568Z,2.35
2018-08-18T02:01:53.009Z,2.35
2018-08-18T02:02:05.681Z,2.35
2018-08-18T02:02:18.105Z,2.49
2018-08-18T02:02:30.550Z,2.49
2018-08-18T02:02:43.180Z,2.49
2018-08-18T02:02:55.615Z,2.49
2018-08-18T02:03:08.052Z,2.49
2018-08-18T02:03:20.490Z,2.49
2018-08-18T02:03:32.929Z,2.49
2018-08-18T02:03:45.362Z,2.49
2018-08-18T02:03:57.763Z,2.49
2018-08-18T02:04:10.184Z,2.49
2018-08-18T02:04:22.603Z,2.49
2018-08-18T02:04:35.023Z,2.49
2018-08-18T02:04:47.445Z,2.49
2018-08-18T02:04:59.867Z,2.49
2018-08-18T02:05:12.303Z,2.49
2018-08-18T02:05:24.757Z,2.49
2018-08-18T02:05:37.207Z,2.49
2018-08-18T02:05:49.632Z,2.49
2018-08-18T02:06:02.040Z,2.49
2018-08-18T02:06:14.448Z,2.49
2018-08-18T02:06:26.913Z,2.49
2018-08-18T02:06:39.341Z,2.49
2018-08-18T02:06:51.773Z,2.49
2018-08-18T02:07:04.253Z,2.49
2018-08-18T02:07:16.677Z,2.49
2018-08-18T02:07:29.102Z,2.49
2018-08-18T02:07:41.505Z,2.49
2018-08-18T02:07:53.921Z,2.49
2018-08-18T02:08:06.352Z,2.49
2018-08-18T02:08:18.809Z,2.49
2018-08-18T02:08:31.362Z,2.49
2018-08-18T02:08:43.767Z,2.49
2018-08-18T02:08:56.169Z,2.49
2018-08-18T02:09:08.583Z,2.49
2018-08-18T02:09:21.003Z,2.49
2018-08-18T02:09:33.478Z,2.49
2018-08-18T02:09:45.894Z,2.49
2018-08-18T02:09:58.368Z,2.49
2018-08-18T02:10:10.793Z,2.49
2018-08-18T02:10:23.227Z,2.49
2018-08-18T02:10:35.655Z,2.49
2018-08-18T02:10:48.080Z,2.49
2018-08-18T02:11:00.527Z,2.49
2018-08-18T02:11:13.091Z,2.49
2018-08-18T02:11:25.515Z,2.49
2018-08-18T02:11:38.066Z,2.49
2018-08-18T02:11:50.482Z,2.49
2018-08-18T02:12:02.900Z,2.49
2018-08-18T02:12:15.334Z,2.38
2018-08-18T02:12:27.768Z,2.38
2018-08-18T02:12:40.187Z,2.38
2018-08-18T02:12:52.599Z,2.38
2018-08-18T02:13:05.031Z,2.38
2018-08-18T02:13:17.486Z,2.38
2018-08-18T02:13:29.957Z,2.38
2018-08-18T02:13:42.374Z,2.38
2018-08-18T02:13:54.789Z,2.38
2018-08-18T02:14:07.248Z,2.38
2018-08-18T02:14:19.651Z,2.38
2018-08-18T02:14:32.052Z,2.38
2018-08-18T02:14:44.459Z,2.38
2018-08-18T02:14:56.890Z,2.38
2018-08-18T02:15:09.311Z,2.38
2018-08-18T02:15:21.705Z,2.38
2018-08-18T02:15:34.163Z,2.38
2018-08-18T02:15:46.594Z,2.38
2018-08-18T02:15:59.009Z,2.38
2018-08-18T02:16:11.568Z,2.38
2018-08-18T02:16:24.001Z,2.38
2018-08-18T02:16:36.456Z,2.38
2018-08-18T02:16:49.305Z,2.38
2018-08-18T02:17:01.740Z,2.38
2018-08-18T02:17:14.176Z,2.38
2018-08-18T02:17:26.605Z,2.38
2018-08-18T02:17:39.112Z,2.38
2018-08-18T02:17:51.697Z,2.38
2018-08-18T02:18:04.113Z,2.38
2018-08-18T02:18:16.545Z,2.38
2018-08-18T02:18:28.952Z,2.38
2018-08-18T02:18:41.382Z,2.38
2018-08-18T02:18:53.794Z,2.38
2018-08-18T02:19:06.203Z,2.38
2018-08-18T02:19:18.628Z,2.38
2018-08-18T02:19:31.072Z,2.38
2018-08-18T02:19:43.498Z,2.38
2018-08-18T02:19:56.275Z,2.38
2018-08-18T02:20:10.443Z,2.38
2018-08-18T02:20:22.875Z,2.38
2018-08-18T02:20:35.320Z,2.38
2018-08-18T02:20:47.816Z,2.38
2018-08-18T02:21:00.243Z,2.38
2018-08-18T02:21:12.651Z,2.38
2018-08-18T02:21:25.067Z,2.38
2018-08-18T02:21:37.476Z,2.38
2018-08-18T02:21:49.903Z,2.38
2018-08-18T02:22:02.316Z,2.38
2018-08-18T02:22:14.754Z,2.15
2018-08-18T02:22:27.346Z,2.15
2018-08-18T02:22:39.773Z,2.15
2018-08-18T02:22:52.198Z,2.15
2018-08-18T02:23:04.638Z,2.15
2018-08-18T02:23:17.052Z,2.15
2018-08-18T02:23:29.484Z,2.15
2018-08-18T02:23:41.883Z,2.15
2018-08-18T02:23:54.285Z,2.15
2018-08-18T02:24:06.704Z,2.15
2018-08-18T02:24:19.106Z,2.15
2018-08-18T02:24:31.514Z,2.15
2018-08-18T02:24:43.982Z,2.15
2018-08-18T02:24:56.434Z,2.15
2018-08-18T02:25:09.112Z,2.15
2018-08-18T02:25:21.522Z,2.15
2018-08-18T02:25:33.933Z,2.15
2018-08-18T02:25:46.367Z,2.15
2018-08-18T02:25:58.794Z,2.15
2018-08-18T02:26:11.223Z,2.15
2018-08-18T02:26:23.695Z,2.15
2018-08-18T02:26:36.099Z,2.15
2018-08-18T02:26:48.678Z,2.15
2018-08-18T02:27:01.067Z,2.15
2018-08-18T02:27:13.496Z,2.15
2018-08-18T02:27:26.044Z,2.15
2018-08-18T02:27:38.453Z,2.15
2018-08-18T02:27:50.923Z,2.15
2018-08-18T02:28:03.343Z,2.15
2018-08-18T02:28:15.749Z,2.15
2018-08-18T02:28:28.171Z,2.15
2018-08-18T02:28:40.579Z,2.15
2018-08-18T02:28:52.994Z,2.15
2018-08-18T02:29:05.416Z,2.15
2018-08-18T02:29:17.829Z,2.15
2018-08-18T02:29:30.244Z,2.15
2018-08-18T02:29:42.653Z,2.15
2018-08-18T02:29:55.123Z,2.15
2018-08-18T02:30:07.683Z,2.15
2018-08-18T02:30:20.188Z,2.15
2018-08-18T02:30:32.639Z,2.15
2018-08-18T02:30:45.066Z,2.15
2018-08-18T02:30:57.480Z,2.15
2018-08-18T02:31:09.923Z,2.15
2018-08-18T02:31:22.404Z,2.15
2018-08-18T02:31:34.821Z,2.15
2018-08-18T02:31:47.266Z,2.15
2018-08-18T02:31:59.691Z,2.15
2018-08-18T02:32:12.115Z,2.15
2018-08-18T02:32:24.538Z,2.15
2018-08-18T02:32:36.949Z,2.2
2018-08-18T02:32:49.402Z,2.2
2018-08-18T02:33:01.867Z,2.2
2018-08-18T02:33:14.293Z,2.2
2018-08-18T02:33:26.718Z,2.2
2018-08-18T02:33:39.166Z,2.2
2018-08-18T02:33:51.575Z,2.2
2018-08-18T02:34:03.989Z,2.2
2018-08-18T02:34:16.410Z,2.2
2018-08-18T02:34:28.843Z,2.2
2018-08-18T02:34:41.252Z,2.2
2018-08-18T02:34:53.675Z,2.2
2018-08-18T02:35:06.213Z,2.2
2018-08-18T02:35:18.650Z,2.2
2018-08-18T02:35:31.085Z,2.2
2018-08-18T02:35:43.491Z,2.2
2018-08-18T02:35:55.916Z,2.2
2018-08-18T02:36:08.307Z,2.2
2018-08-18T02:36:20.739Z,2.2
2018-08-18T02:36:33.189Z,2.2
2018-08-18T02:36:45.623Z,2.2
2018-08-18T02:36:58.039Z,2.2
2018-08-18T02:37:10.476Z,2.2
2018-08-18T02:37:22.902Z,2.2
2018-08-18T02:37:35.340Z,2.2
2018-08-18T02:37:47.779Z,2.2
2018-08-18T02:38:00.198Z,2.2
2018-08-18T02:38:12.660Z,2.2
2018-08-18T02:38:25.089Z,2.2
2018-08-18T02:38:37.501Z,2.2
2018-08-18T02:38:49.919Z,2.2
2018-08-18T02:39:02.366Z,2.2
2018-08-18T02:39:14.794Z,2.2
2018-08-18T02:39:27.212Z,2.2
2018-08-18T02:39:39.625Z,2.2
2018-08-18T02:39:52.106Z,2.2
2018-08-18T02:40:05.140Z,2.2
2018-08-18T02:40:19.064Z,2.2
2018-08-18T02:40:31.509Z,2.2
2018-08-18T02:40:43.926Z,2.2
2018-08-18T02:40:56.340Z,2.2
2018-08-18T02:41:08.761Z,2.2
2018-08-18T02:41:21.196Z,2.2
2018-08-18T02:41:33.628Z,2.2
2018-08-18T02:41:46.039Z,2.2
2018-08-18T02:41:58.556Z,2.2
2018-08-18T02:42:10.980Z,2.2
2018-08-18T02:42:23.406Z,2.2
2018-08-18T02:42:35.852Z,2.57
2018-08-18T02:42:48.272Z,2.57
2018-08-18T02:43:00.706Z,2.57
2018-08-18T02:43:13.132Z,2.57
2018-08-18T02:43:25.635Z,2.57
2018-08-18T02:43:38.051Z,2.57
2018-08-18T02:43:50.491Z,2.57
2018-08-18T02:44:03.059Z,2.57
2018-08-18T02:44:15.485Z,2.57
2018-08-18T02:44:27.935Z,2.57
2018-08-18T02:44:40.360Z,2.57
2018-08-18T02:44:52.806Z,2.57
2018-08-18T02:45:05.265Z,2.57
2018-08-18T02:45:17.710Z,2.57
2018-08-18T02:45:30.141Z,2.57
2018-08-18T02:45:42.545Z,2.57
2018-08-18T02:45:54.976Z,2.57
2018-08-18T02:46:07.404Z,2.57
2018-08-18T02:46:19.826Z,2.57
2018-08-18T02:46:32.249Z,2.57
2018-08-18T02:46:44.684Z,2.57
2018-08-18T02:46:57.124Z,2.57
2018-08-18T02:47:09.592Z,2.57
2018-08-18T02:47:22.023Z,2.57
2018-08-18T02:47:34.478Z,2.57